Time;durP1;ratioP1;P1;durP2;ratioP2;P2;SDS_P1;SDS_P2;PMS_P1;PMS_P2;Temp;Humidity;BMP_temperature;BMP_pressure;BME280_temperature;BME280_humidity;BME280_pressure;Samples;Min_cycle;Max_cycle;Signal;HPM_P1;HPM_P2
2021/04/26 00:01:34;;;;;;;1.43;1.20;;;25.70;49.90;;;;;;4994081;28;20479;-81
2021/04/26 00:04:02;;;;;;;1.43;1.33;;;25.70;50.20;;;;;;4994180;28;20893;-80
2021/04/26 00:06:28;;;;;;;1.40;1.27;;;25.60;50.00;;;;;;4994199;28;21016;-80
2021/04/26 00:08:54;;;;;;;1.40;1.30;;;25.60;50.00;;;;;;4994011;28;20444;-81
2021/04/26 00:11:22;;;;;;;1.50;1.40;;;25.60;50.20;;;;;;4994163;28;20490;-80
2021/04/26 00:13:48;;;;;;;1.50;1.40;;;25.60;50.00;;;;;;4994067;28;20986;-82
2021/04/26 00:16:14;;;;;;;1.40;1.27;;;25.60;50.30;;;;;;4994021;28;20455;-81
2021/04/26 00:18:41;;;;;;;1.40;1.20;;;25.60;50.40;;;;;;4993963;28;20462;-80
2021/04/26 00:21:08;;;;;;;1.70;1.60;;;25.60;50.40;;;;;;4994051;28;20448;-80
2021/04/26 00:23:34;;;;;;;3.07;1.50;;;25.60;50.10;;;;;;4994069;28;20440;-81
2021/04/26 00:26:01;;;;;;;1.60;1.30;;;25.60;50.30;;;;;;4993909;28;20444;-82
2021/04/26 00:28:28;;;;;;;2.27;1.57;;;25.50;50.20;;;;;;4993784;28;20440;-80
2021/04/26 00:30:54;;;;;;;1.10;1.00;;;25.60;50.20;;;;;;4994057;28;20450;-80
2021/04/26 00:33:20;;;;;;;1.50;1.20;;;25.50;50.20;;;;;;4993765;28;21009;-81
2021/04/26 00:35:47;;;;;;;1.23;1.13;;;25.50;50.40;;;;;;4993895;28;20450;-81
2021/04/26 00:38:13;;;;;;;1.37;1.07;;;25.50;50.20;;;;;;4993798;28;20446;-80
2021/04/26 00:40:39;;;;;;;1.83;1.23;;;25.50;50.30;;;;;;4993824;28;20969;-81
2021/04/26 00:43:06;;;;;;;1.30;1.20;;;25.50;50.30;;;;;;4993835;28;20865;-81
2021/04/26 00:45:33;;;;;;;1.30;1.20;;;25.50;50.50;;;;;;4993731;28;20450;-80
2021/04/26 00:47:59;;;;;;;1.97;1.10;;;25.50;50.50;;;;;;4993567;28;20535;-81
2021/04/26 00:50:27;;;;;;;1.50;1.40;;;25.50;50.70;;;;;;4993728;28;20458;-80
2021/04/26 00:52:54;;;;;;;1.80;1.20;;;25.50;50.50;;;;;;4993652;28;20995;-82
2021/04/26 00:55:23;;;;;;;1.37;1.17;;;25.50;50.80;;;;;;4993723;28;20444;-82
2021/04/26 00:57:49;;;;;;;1.47;1.20;;;25.40;50.50;;;;;;4993566;28;20436;-82
2021/04/26 01:00:17;;;;;;;1.70;1.60;;;25.40;50.70;;;;;;4993344;28;21114;-81
2021/04/26 01:02:44;;;;;;;1.40;1.30;;;25.40;50.70;;;;;;4993543;28;20943;-80
2021/04/26 01:05:14;;;;;;;1.23;1.13;;;25.40;50.80;;;;;;4993711;28;20443;-80
2021/04/26 01:07:41;;;;;;;1.43;1.30;;;25.40;50.40;;;;;;4993376;28;20449;-81
2021/04/26 01:10:11;;;;;;;1.43;1.27;;;25.40;50.80;;;;;;4993696;28;20448;-80
2021/04/26 01:13:09;;;;;;;1.70;1.57;;;25.40;50.70;;;;;;4993450;28;20549;-81
2021/04/26 01:15:42;;;;;;;1.50;1.40;;;25.40;50.60;;;;;;4996239;28;20440;-81
2021/04/26 01:18:15;;;;;;;1.40;1.30;;;25.40;50.40;;;;;;4997267;28;20535;-82
2021/04/26 01:21:24;;;;;;;1.53;1.43;;;25.40;50.70;;;;;;4997362;28;20781;-80
2021/04/26 01:24:29;;;;;;;1.40;1.30;;;25.40;50.40;;;;;;4997276;28;20502;-81
2021/04/26 01:27:18;;;;;;;1.10;1.00;;;25.40;50.60;;;;;;4996755;28;20444;-82
2021/04/26 01:29:59;;;;;;;1.33;1.23;;;25.40;50.60;;;;;;4994404;28;20512;-81
2021/04/26 01:32:31;;;;;;;1.23;1.13;;;25.50;50.60;;;;;;4997074;28;20490;-81
2021/04/26 01:34:58;;;;;;;1.70;1.27;;;25.40;50.40;;;;;;4997045;28;20785;-81
2021/04/26 01:37:26;;;;;;;1.30;1.20;;;25.40;50.40;;;;;;4996911;28;20474;-80
2021/04/26 01:39:54;;;;;;;2.37;1.40;;;25.40;50.40;;;;;;4997045;28;20495;-81
2021/04/26 01:42:22;;;;;;;1.60;1.50;;;25.40;50.30;;;;;;4996840;28;20454;-81
2021/04/26 01:44:48;;;;;;;1.33;1.23;;;25.40;50.30;;;;;;4996888;28;20470;-81
2021/04/26 01:47:17;;;;;;;2.03;1.40;;;25.40;50.30;;;;;;4996565;28;21008;-81
2021/04/26 01:49:45;;;;;;;1.60;1.50;;;25.40;50.20;;;;;;4996775;28;20440;-80
2021/04/26 01:52:12;;;;;;;1.40;1.30;;;25.40;50.10;;;;;;4996729;28;20517;-82
2021/04/26 01:54:39;;;;;;;1.40;1.30;;;25.40;50.10;;;;;;4996626;28;20451;-80
2021/04/26 01:57:06;;;;;;;1.27;1.17;;;25.40;50.10;;;;;;4996522;28;20448;-81
2021/04/26 01:59:34;;;;;;;1.20;1.10;;;25.40;50.00;;;;;;4996514;28;20452;-81
2021/04/26 02:02:00;;;;;;;1.33;1.20;;;25.40;50.00;;;;;;4957798;29;20441;-80
2021/04/26 02:04:28;;;;;;;1.50;1.37;;;25.40;50.20;;;;;;4957764;29;20484;-81
2021/04/26 02:06:56;;;;;;;1.17;1.07;;;25.40;50.10;;;;;;4957569;29;20462;-81
2021/04/26 02:09:24;;;;;;;1.60;1.50;;;25.40;50.00;;;;;;4957691;29;20817;-81
2021/04/26 02:11:51;;;;;;;1.30;1.20;;;25.40;50.00;;;;;;4957560;28;20496;-80
2021/04/26 02:14:17;;;;;;;1.50;1.40;;;25.40;50.00;;;;;;4957595;29;20479;-82
2021/04/26 02:16:44;;;;;;;1.63;1.03;;;25.40;50.00;;;;;;4957447;29;20471;-80
2021/04/26 02:19:11;;;;;;;1.50;1.30;;;25.40;50.00;;;;;;4957564;28;20438;-81
2021/04/26 02:21:39;;;;;;;1.30;1.10;;;25.40;49.80;;;;;;4957401;29;20449;-81
2021/04/26 02:24:08;;;;;;;1.20;1.10;;;25.40;49.80;;;;;;4957356;29;20833;-80
2021/04/26 02:26:34;;;;;;;2.20;1.50;;;25.40;50.00;;;;;;4955945;28;20454;-80
2021/04/26 02:29:00;;;;;;;1.40;1.17;;;25.30;49.90;;;;;;4957244;29;20944;-81
2021/04/26 02:31:31;;;;;;;1.73;1.20;;;25.30;49.80;;;;;;4957309;29;20441;-80
2021/04/26 02:34:06;;;;;;;1.40;1.30;;;25.30;49.70;;;;;;4957387;29;20445;-81
2021/04/26 02:36:35;;;;;;;1.30;1.20;;;25.40;49.90;;;;;;4957090;29;20962;-81
2021/04/26 02:39:05;;;;;;;1.43;1.33;;;25.30;49.80;;;;;;4957162;29;20533;-81
2021/04/26 02:41:34;;;;;;;1.40;1.30;;;25.30;49.80;;;;;;4957069;28;20446;-81
2021/04/26 02:44:06;;;;;;;1.53;1.17;;;25.30;49.70;;;;;;4957092;28;20520;-81
2021/04/26 02:46:34;;;;;;;1.20;1.10;;;25.30;49.60;;;;;;4956814;29;20457;-82
2021/04/26 02:49:02;;;;;;;1.40;1.20;;;25.30;49.50;;;;;;4957009;29;20522;-81
2021/04/26 02:51:32;;;;;;;1.70;1.60;;;25.40;49.60;;;;;;4956830;29;20868;-80
2021/04/26 02:54:01;;;;;;;1.57;1.47;;;25.30;50.30;;;;;;4956896;29;20450;-80
2021/04/26 02:56:29;;;;;;;1.30;1.10;;;25.40;49.60;;;;;;4956763;29;20457;-81
2021/04/26 02:58:57;;;;;;;1.30;1.10;;;25.40;49.60;;;;;;4956818;29;20442;-81
2021/04/26 03:01:25;;;;;;;1.40;1.30;;;25.40;49.60;;;;;;4985989;28;20482;-81
2021/04/26 03:03:52;;;;;;;1.30;1.17;;;25.40;49.30;;;;;;4995356;28;20455;-81
2021/04/26 03:06:18;;;;;;;1.27;1.17;;;25.40;49.30;;;;;;4995227;28;20470;-80
2021/04/26 03:08:46;;;;;;;1.30;1.20;;;25.40;49.10;;;;;;4995298;28;20468;-80
2021/04/26 03:11:14;;;;;;;1.53;1.43;;;25.40;49.40;;;;;;4995327;28;20444;-80
2021/04/26 03:13:42;;;;;;;1.63;1.40;;;25.40;49.30;;;;;;4995045;28;20492;-80
2021/04/26 03:16:10;;;;;;;1.40;1.20;;;25.40;49.40;;;;;;4995137;28;20530;-80
2021/04/26 03:18:38;;;;;;;1.30;1.20;;;25.40;49.30;;;;;;4995109;28;20542;-81
2021/04/26 03:21:08;;;;;;;1.30;1.20;;;25.40;49.30;;;;;;4995092;28;20443;-81
2021/04/26 03:23:36;;;;;;;1.30;1.10;;;25.40;49.20;;;;;;4995011;28;20447;-80
2021/04/26 03:26:04;;;;;;;1.30;1.20;;;25.40;49.30;;;;;;4994879;28;20454;-80
2021/04/26 03:28:33;;;;;;;1.10;1.00;;;25.40;49.40;;;;;;4995017;28;20448;-81
2021/04/26 03:31:01;;;;;;;1.40;1.30;;;25.40;49.30;;;;;;4994955;28;20440;-82
2021/04/26 03:33:31;;;;;;;1.20;1.10;;;25.40;49.10;;;;;;4994721;28;20494;-81
2021/04/26 03:35:57;;;;;;;1.10;1.00;;;25.30;49.20;;;;;;4994747;28;20447;-81
2021/04/26 03:38:24;;;;;;;1.23;1.10;;;25.30;49.10;;;;;;4994483;28;20440;-81
2021/04/26 03:40:51;;;;;;;1.20;1.10;;;25.30;49.00;;;;;;4994656;28;20436;-80
2021/04/26 03:43:17;;;;;;;1.20;1.10;;;25.30;49.10;;;;;;4994663;28;20466;-81
2021/04/26 03:45:44;;;;;;;1.50;1.40;;;25.30;49.00;;;;;;4994481;28;20440;-81
2021/04/26 03:48:10;;;;;;;1.17;0.87;;;25.30;49.10;;;;;;4994587;28;20825;-82
2021/04/26 03:50:37;;;;;;;1.73;1.30;;;25.30;49.00;;;;;;4994520;28;20445;-81
2021/04/26 03:53:04;;;;;;;1.77;1.03;;;25.30;49.00;;;;;;4994411;28;20490;-81
2021/04/26 03:55:30;;;;;;;1.43;1.33;;;25.30;49.00;;;;;;4994509;28;20447;-81
2021/04/26 03:57:57;;;;;;;1.17;1.00;;;25.30;48.90;;;;;;4994416;28;20444;-80
2021/04/26 04:00:24;;;;;;;1.37;1.10;;;25.30;48.90;;;;;;4994121;28;20474;-81
2021/04/26 04:02:50;;;;;;;1.27;1.17;;;25.30;48.90;;;;;;4994218;28;20440;-81
2021/04/26 04:05:17;;;;;;;1.20;1.10;;;25.30;48.90;;;;;;4994332;28;20451;-81
2021/04/26 04:07:44;;;;;;;1.60;1.27;;;25.30;49.00;;;;;;4994239;28;20484;-81
2021/04/26 04:10:13;;;;;;;1.93;1.30;;;25.30;48.90;;;;;;4994123;28;20446;-80
2021/04/26 04:12:40;;;;;;;1.33;1.23;;;25.30;48.90;;;;;;4993947;28;20501;-81
2021/04/26 04:15:08;;;;;;;1.40;1.20;;;25.30;48.90;;;;;;4994100;28;20961;-81
2021/04/26 04:17:35;;;;;;;1.43;1.33;;;25.30;48.90;;;;;;4994025;28;20436;-80
2021/04/26 04:20:01;;;;;;;1.30;1.20;;;25.30;48.90;;;;;;4994047;28;20531;-80
2021/04/26 04:22:27;;;;;;;1.10;1.00;;;25.30;48.80;;;;;;4994002;28;20497;-81
2021/04/26 04:24:54;;;;;;;1.40;1.30;;;25.30;48.90;;;;;;4994001;28;20450;-81
2021/04/26 04:27:21;;;;;;;1.07;0.97;;;25.30;48.90;;;;;;4993909;28;20435;-81
2021/04/26 04:29:47;;;;;;;1.20;1.10;;;25.30;49.00;;;;;;4993962;28;20449;-81
2021/04/26 04:32:13;;;;;;;1.20;1.10;;;25.30;48.90;;;;;;4993802;28;20484;-80
2021/04/26 04:34:40;;;;;;;1.40;1.30;;;25.30;49.00;;;;;;4993919;28;20501;-80
2021/04/26 04:37:06;;;;;;;1.50;1.40;;;25.30;48.80;;;;;;4993758;28;20465;-81
2021/04/26 04:39:32;;;;;;;1.07;0.97;;;25.30;49.00;;;;;;4993826;28;20931;-80
2021/04/26 04:41:59;;;;;;;1.30;1.10;;;25.30;49.10;;;;;;4993913;28;20467;-80
2021/04/26 04:44:26;;;;;;;1.30;0.90;;;25.20;49.50;;;;;;4993780;28;20871;-80
2021/04/26 04:46:52;;;;;;;1.20;1.10;;;25.30;49.00;;;;;;4993643;28;20462;-81
2021/04/26 04:49:18;;;;;;;1.47;1.37;;;25.30;48.90;;;;;;4994445;28;20449;-81
2021/04/26 04:51:45;;;;;;;1.23;1.13;;;25.30;48.80;;;;;;4997751;28;20478;-80
2021/04/26 04:54:11;;;;;;;1.57;1.27;;;25.30;48.70;;;;;;4997734;28;20945;-80
2021/04/26 04:56:39;;;;;;;1.20;1.10;;;25.30;48.90;;;;;;4997683;28;20443;-81
2021/04/26 04:59:06;;;;;;;1.40;1.03;;;25.30;48.90;;;;;;4997803;28;20457;-80
2021/04/26 05:01:32;;;;;;;1.20;1.10;;;25.20;48.80;;;;;;4997606;28;20530;-81
2021/04/26 05:03:59;;;;;;;1.20;1.00;;;25.30;48.90;;;;;;4997556;28;20447;-81
2021/04/26 05:06:25;;;;;;;1.40;1.17;;;25.40;49.00;;;;;;4997345;28;20448;-81
2021/04/26 05:08:53;;;;;;;1.90;1.07;;;25.20;49.50;;;;;;4997537;28;21003;-81
2021/04/26 05:11:19;;;;;;;1.10;1.00;;;25.20;48.90;;;;;;4997573;28;20449;-80
2021/04/26 05:13:46;;;;;;;1.33;1.20;;;25.20;48.80;;;;;;4997311;28;20530;-82
2021/04/26 05:16:13;;;;;;;1.30;1.20;;;25.20;48.80;;;;;;4997367;28;20947;-80
2021/04/26 05:18:39;;;;;;;1.30;1.20;;;25.20;48.80;;;;;;4997366;28;20456;-80
2021/04/26 05:21:06;;;;;;;1.50;1.10;;;25.20;48.70;;;;;;4997302;28;20440;-80
2021/04/26 05:23:32;;;;;;;1.13;1.03;;;25.20;48.70;;;;;;4997358;28;20459;-80
2021/04/26 05:25:58;;;;;;;1.10;0.90;;;25.20;48.80;;;;;;4997235;28;20443;-80
2021/04/26 05:28:25;;;;;;;1.10;1.00;;;25.20;49.40;;;;;;4997296;28;20451;-80
2021/04/26 05:30:51;;;;;;;1.30;1.20;;;25.20;48.80;;;;;;4997199;28;20780;-81
2021/04/26 05:33:19;;;;;;;1.00;0.90;;;25.20;49.50;;;;;;4997035;28;20491;-80
2021/04/26 05:35:45;;;;;;;1.60;1.23;;;25.20;49.50;;;;;;4997145;28;20448;-80
2021/04/26 05:38:13;;;;;;;1.60;1.33;;;25.20;48.90;;;;;;4997002;28;20443;-80
2021/04/26 05:40:40;;;;;;;1.23;1.13;;;25.30;49.00;;;;;;4996976;28;20507;-80
2021/04/26 05:43:08;;;;;;;1.10;1.00;;;25.30;49.10;;;;;;4996957;28;20468;-80
2021/04/26 05:45:34;;;;;;;1.30;1.20;;;25.30;49.00;;;;;;4996703;28;20809;-80
2021/04/26 05:48:00;;;;;;;1.20;1.10;;;25.30;49.20;;;;;;4996428;28;20448;-80
2021/04/26 05:50:28;;;;;;;1.43;1.20;;;25.30;49.80;;;;;;4986473;28;20428;-81
2021/04/26 05:52:54;;;;;;;1.40;1.10;;;25.30;49.80;;;;;;4987104;28;20488;-82
2021/04/26 05:55:21;;;;;;;1.70;0.90;;;25.30;49.20;;;;;;4996665;28;20448;-82
2021/04/26 05:57:48;;;;;;;1.10;1.00;;;25.30;49.50;;;;;;4996732;28;20450;-82
2021/04/26 06:00:15;;;;;;;4.70;1.30;;;25.30;49.70;;;;;;4996272;28;20534;-82
2021/04/26 06:02:41;;;;;;;7.37;1.37;;;25.40;50.20;;;;;;4996687;28;20436;-86
2021/04/26 06:05:08;;;;;;;2.13;1.20;;;25.40;50.10;;;;;;4996966;28;20453;-79
2021/04/26 06:07:35;;;;;;;5.03;1.10;;;25.40;48.90;;;;;;4996441;28;20459;-82
2021/04/26 06:10:02;;;;;;;2.07;1.00;;;25.40;49.70;;;;;;4996382;28;20440;-82
2021/04/26 06:12:29;;;;;;;1.30;1.10;;;25.40;49.40;;;;;;4996448;28;20530;-82
2021/04/26 06:14:55;;;;;;;1.30;1.20;;;25.40;49.50;;;;;;4996468;28;20452;-81
2021/04/26 06:17:21;;;;;;;2.17;1.00;;;25.40;49.50;;;;;;4996655;28;20785;-81
2021/04/26 06:19:48;;;;;;;1.30;1.10;;;25.40;49.80;;;;;;4996310;28;20436;-81
2021/04/26 06:22:14;;;;;;;7.43;1.17;;;25.40;49.50;;;;;;4996299;28;20448;-80
2021/04/26 06:24:41;;;;;;;1.30;1.17;;;25.40;50.10;;;;;;4990383;28;20800;-81
2021/04/26 06:27:07;;;;;;;3.27;1.27;;;25.50;50.40;;;;;;4976608;28;20456;-81
2021/04/26 06:29:34;;;;;;;1.30;1.20;;;25.50;50.20;;;;;;4976761;28;20444;-80
2021/04/26 06:32:00;;;;;;;1.00;0.90;;;25.60;50.10;;;;;;4976553;28;20492;-80
2021/04/26 06:34:26;;;;;;;1.37;1.13;;;25.50;50.00;;;;;;4976504;28;20519;-81
2021/04/26 06:36:53;;;;;;;1.00;0.80;;;25.50;49.90;;;;;;4976659;28;20466;-86
2021/04/26 06:39:19;;;;;;;2.90;1.20;;;25.50;50.00;;;;;;4976462;28;20437;-83
2021/04/26 06:41:46;;;;;;;1.40;1.10;;;25.50;50.00;;;;;;4976461;28;20959;-80
2021/04/26 06:44:12;;;;;;;1.27;1.17;;;25.50;50.10;;;;;;4979183;28;20457;-80
2021/04/26 06:46:39;;;;;;;1.30;1.10;;;25.70;50.20;;;;;;4992838;28;20453;-84
2021/04/26 06:49:05;;;;;;;1.23;1.10;;;25.50;50.20;;;;;;4995897;28;20839;-83
2021/04/26 06:51:31;;;;;;;1.30;1.17;;;25.50;50.00;;;;;;4995838;28;20993;-84
2021/04/26 06:53:58;;;;;;;2.13;1.17;;;25.50;49.90;;;;;;4995644;28;20492;-78
2021/04/26 06:56:24;;;;;;;1.67;1.17;;;25.50;49.70;;;;;;4995587;28;20443;-78
2021/04/26 06:58:52;;;;;;;4.03;1.60;;;25.50;49.30;;;;;;4995618;28;20839;-81
2021/04/26 07:01:18;;;;;;;1.90;1.70;;;25.50;48.60;;;;;;4993198;28;20478;-79
2021/04/26 07:03:44;;;;;;;3.80;1.73;;;25.50;48.70;;;;;;4988076;28;20451;-78
2021/04/26 07:06:10;;;;;;;4.03;1.30;;;25.50;49.50;;;;;;4978418;28;20441;-79
2021/04/26 07:08:37;;;;;;;1.30;1.20;;;25.50;49.50;;;;;;4976120;28;20445;-82
2021/04/26 07:11:03;;;;;;;1.60;1.30;;;25.60;49.40;;;;;;4975992;28;20475;-81
2021/04/26 07:13:29;;;;;;;7.53;3.63;;;25.60;49.40;;;;;;4975080;28;20828;-78
2021/04/26 07:15:56;;;;;;;5.73;3.83;;;25.60;44.90;;;;;;4975775;28;20445;-83
2021/04/26 07:18:23;;;;;;;5.20;3.80;;;25.40;42.70;;;;;;4975972;28;20533;-85
2021/04/26 07:20:50;;;;;;;7.90;4.57;;;25.20;42.00;;;;;;4975896;28;20452;-85
2021/04/26 07:23:18;;;;;;;7.57;3.60;;;24.90;41.50;;;;;;4976146;28;20441;-82
2021/04/26 07:25:45;;;;;;;10.37;3.93;;;24.70;42.00;;;;;;4977963;28;20437;-83
2021/04/26 07:28:11;;;;;;;6.80;4.00;;;24.50;42.10;;;;;;4975620;28;20916;-83
2021/04/26 07:30:37;;;;;;;4.83;4.03;;;24.40;41.60;;;;;;4975801;28;20449;-84
2021/04/26 07:33:05;;;;;;;9.60;4.50;;;24.30;41.70;;;;;;4975486;28;20492;-83
2021/04/26 07:35:31;;;;;;;6.40;4.30;;;24.20;41.90;;;;;;4975641;28;20462;-79
2021/04/26 07:37:58;;;;;;;4.37;3.50;;;24.10;41.70;;;;;;4975673;28;21027;-86
2021/04/26 07:40:24;;;;;;;4.70;3.30;;;24.00;41.70;;;;;;4975754;28;20438;-85
2021/04/26 07:42:50;;;;;;;4.80;3.90;;;24.00;41.70;;;;;;4975486;28;20501;-89
2021/04/26 07:45:20;;;;;;;3.90;3.50;;;23.70;41.40;;;;;;4975397;28;20447;-87
2021/04/26 07:47:47;;;;;;;8.33;3.60;;;23.90;42.00;;;;;;4975307;28;20452;-84
2021/04/26 07:50:15;;;;;;;7.97;4.27;;;23.80;41.40;;;;;;4975576;28;20450;-85
2021/04/26 07:52:41;;;;;;;6.20;3.30;;;23.80;41.50;;;;;;4975309;28;20485;-89
2021/04/26 07:55:08;;;;;;;5.10;3.13;;;23.80;42.00;;;;;;4975269;28;20452;-85
2021/04/26 07:57:35;;;;;;;2.70;2.40;;;23.80;42.60;;;;;;4975307;28;20443;-86
2021/04/26 08:00:03;;;;;;;5.10;2.63;;;23.90;43.40;;;;;;4975075;28;20479;-80
2021/04/26 08:02:29;;;;;;;3.00;2.70;;;24.00;44.40;;;;;;4975055;28;20459;-83
2021/04/26 08:04:56;;;;;;;3.27;2.60;;;24.20;45.40;;;;;;4975360;28;20457;-81
2021/04/26 08:07:23;;;;;;;4.90;2.30;;;24.60;45.90;;;;;;4975104;28;20453;-82
2021/04/26 08:09:49;;;;;;;2.03;1.83;;;24.50;46.00;;;;;;4974812;28;20956;-85
2021/04/26 08:12:15;;;;;;;3.20;2.00;;;24.70;46.20;;;;;;4974778;28;20859;-84
2021/04/26 08:14:42;;;;;;;2.40;2.00;;;24.80;46.30;;;;;;4975057;28;20444;-82
2021/04/26 08:17:08;;;;;;;1.93;1.73;;;24.90;46.50;;;;;;4974760;28;20804;-84
2021/04/26 08:19:34;;;;;;;2.50;1.93;;;25.00;46.60;;;;;;4974728;28;20441;-81
2021/04/26 08:22:00;;;;;;;3.43;1.67;;;25.10;46.60;;;;;;4974574;28;21018;-80
2021/04/26 08:24:28;;;;;;;2.30;1.80;;;25.20;46.70;;;;;;4974903;28;20440;-80
2021/04/26 08:26:54;;;;;;;3.90;1.70;;;25.30;46.80;;;;;;4974722;28;20449;-84
2021/04/26 08:29:21;;;;;;;2.03;1.83;;;25.40;46.90;;;;;;4981616;28;20454;-91
2021/04/26 08:31:47;;;;;;;5.10;2.10;;;25.40;46.90;;;;;;4994306;28;20502;-87
2021/04/26 08:34:14;;;;;;;3.53;1.83;;;25.50;46.60;;;;;;4994022;28;20480;-86
2021/04/26 08:36:40;;;;;;;20.97;2.03;;;25.50;46.90;;;;;;4994552;28;20455;-85
2021/04/26 08:39:07;;;;;;;11.33;1.80;;;25.60;46.60;;;;;;4994455;28;20448;-88
2021/04/26 08:41:34;;;;;;;5.33;1.97;;;25.80;47.10;;;;;;4994539;28;20943;-88
2021/04/26 08:44:01;;;;;;;9.93;1.57;;;25.80;44.70;;;;;;4994724;28;20471;-87
2021/04/26 08:46:27;;;;;;;2.83;1.57;;;25.90;44.10;;;;;;4994115;28;20498;-87
2021/04/26 08:48:53;;;;;;;7.27;2.37;;;26.00;45.00;;;;;;4994449;28;20447;-89
2021/04/26 08:51:20;;;;;;;4.43;2.30;;;26.00;43.40;;;;;;4994140;28;20444;-87
2021/04/26 08:53:47;;;;;;;4.17;1.40;;;26.00;41.80;;;;;;4994041;28;20502;-87
2021/04/26 08:56:14;;;;;;;5.40;1.40;;;26.00;41.80;;;;;;4994144;28;20452;-88
2021/04/26 08:58:41;;;;;;;1.37;1.27;;;25.90;42.70;;;;;;4994216;28;20793;-88
2021/04/26 09:01:07;;;;;;;5.33;2.07;;;26.00;44.20;;;;;;4993857;28;21070;-87
2021/04/26 09:03:36;;;;;;;2.70;1.60;;;26.00;44.40;;;;;;4993739;28;20446;-87
2021/04/26 09:06:02;;;;;;;2.90;1.50;;;26.10;45.20;;;;;;4994115;28;20860;-86
2021/04/26 09:08:29;;;;;;;5.20;1.23;;;26.10;45.00;;;;;;4993999;28;20776;-86
2021/04/26 09:11:01;;;;;;;1.90;1.20;;;26.10;45.20;;;;;;4994132;28;20448;-86
2021/04/26 09:13:30;;;;;;;1.70;1.20;;;26.20;45.30;;;;;;4993602;28;20566;-87
2021/04/26 09:15:59;;;;;;;2.67;1.50;;;26.20;45.30;;;;;;4981944;28;20447;-86
2021/04/26 09:18:53;;;;;;;3.73;1.53;;;26.20;45.30;;;;;;4982086;28;20441;-88
2021/04/26 09:21:23;;;;;;;1.43;1.27;;;26.40;45.40;;;;;;4974150;28;20453;-84
2021/04/26 09:24:15;;;;;;;2.13;1.37;;;26.50;45.60;;;;;;4979612;28;20448;-86
2021/04/26 09:26:43;;;;;;;2.53;1.37;;;26.50;45.70;;;;;;4983641;28;20441;-86
2021/04/26 09:29:16;;;;;;;2.53;1.40;;;26.50;45.90;;;;;;4983069;28;20445;-82
2021/04/26 09:32:00;;;;;;;4.27;1.57;;;26.50;46.00;;;;;;4984252;28;20432;-88
2021/04/26 09:34:33;;;;;;;2.43;1.20;;;26.60;46.10;;;;;;4974300;28;20496;-88
2021/04/26 09:37:04;;;;;;;1.97;1.10;;;26.60;46.20;;;;;;4982221;28;20818;-88
2021/04/26 09:39:31;;;;;;;6.37;1.40;;;26.70;46.40;;;;;;4977392;28;20450;-86
2021/04/26 09:41:57;;;;;;;2.90;1.57;;;26.70;46.30;;;;;;4977120;28;20456;-86
2021/04/26 09:44:24;;;;;;;2.80;1.40;;;26.70;46.30;;;;;;4977315;28;20524;-86
2021/04/26 09:46:53;;;;;;;5.00;1.43;;;26.80;46.40;;;;;;4977320;28;20461;-86
2021/04/26 09:49:21;;;;;;;2.07;1.30;;;26.80;46.40;;;;;;4977327;28;20507;-86
2021/04/26 09:51:49;;;;;;;3.40;1.20;;;26.80;46.40;;;;;;4977333;28;20448;-86
2021/04/26 09:54:16;;;;;;;1.97;1.10;;;26.90;46.50;;;;;;4977184;28;20496;-87
2021/04/26 09:56:44;;;;;;;2.40;1.20;;;26.90;46.50;;;;;;4977133;28;20442;-86
2021/04/26 09:59:12;;;;;;;1.70;1.13;;;27.00;46.60;;;;;;4976931;28;20967;-86
2021/04/26 10:01:39;;;;;;;1.43;1.00;;;27.00;46.70;;;;;;4977019;28;20476;-86
2021/04/26 10:04:10;;;;;;;1.50;1.10;;;27.10;46.70;;;;;;4977028;28;20447;-88
2021/04/26 10:06:37;;;;;;;2.90;1.23;;;27.20;46.70;;;;;;4976789;28;20453;-88
2021/04/26 10:09:05;;;;;;;1.63;0.93;;;27.20;46.70;;;;;;4977090;28;20443;-86
2021/04/26 10:11:33;;;;;;;1.80;1.33;;;27.30;46.70;;;;;;4976951;28;20439;-86
2021/04/26 10:14:01;;;;;;;2.53;1.67;;;27.30;46.70;;;;;;4976918;28;20501;-87
2021/04/26 10:16:36;;;;;;;4.97;1.30;;;27.40;46.70;;;;;;4976760;28;20529;-86
2021/04/26 10:19:05;;;;;;;3.73;1.33;;;27.40;46.70;;;;;;4976702;28;20446;-86
2021/04/26 10:21:36;;;;;;;1.80;1.30;;;27.40;46.70;;;;;;4976808;28;21004;-89
2021/04/26 10:24:24;;;;;;;1.57;1.13;;;27.40;46.70;;;;;;4976807;28;20962;-87
2021/04/26 10:26:53;;;;;;;1.67;1.00;;;27.50;46.80;;;;;;4970797;28;20957;-87
2021/04/26 10:29:25;;;;;;;3.17;1.00;;;27.40;46.90;;;;;;4976640;28;21002;-86
2021/04/26 10:32:11;;;;;;;1.30;1.07;;;27.40;46.90;;;;;;4976641;28;20440;-86
2021/04/26 10:35:10;;;;;;;3.10;1.00;;;27.50;47.50;;;;;;4976576;28;20971;-86
2021/04/26 10:37:38;;;;;;;1.10;1.00;;;27.50;47.00;;;;;;4976430;28;20477;-86
2021/04/26 10:40:22;;;;;;;2.50;1.10;;;27.50;47.00;;;;;;4976483;28;20440;-86
2021/04/26 10:42:50;;;;;;;3.20;1.07;;;27.50;47.00;;;;;;4974880;28;20475;-86
2021/04/26 10:45:21;;;;;;;1.37;1.27;;;27.70;47.20;;;;;;4976339;28;20439;-86
2021/04/26 10:48:09;;;;;;;2.63;1.27;;;27.50;47.10;;;;;;4975233;28;20443;-88
2021/04/26 10:50:38;;;;;;;1.60;1.10;;;27.60;47.10;;;;;;4976366;28;20538;-87
2021/04/26 10:53:06;;;;;;;1.80;1.30;;;27.60;47.10;;;;;;4976214;28;20591;-86
2021/04/26 10:55:45;;;;;;;2.03;0.80;;;27.70;47.20;;;;;;4976116;28;20448;-86
2021/04/26 10:58:34;;;;;;;1.13;0.93;;;27.60;47.20;;;;;;4976315;28;20437;-86
2021/04/26 11:01:02;;;;;;;3.50;1.30;;;27.60;47.20;;;;;;4976182;28;20495;-86
2021/04/26 11:03:36;;;;;;;1.33;1.23;;;27.80;45.20;;;;;;4976288;28;20837;-88
2021/04/26 11:06:25;;;;;;;1.57;1.40;;;27.70;45.00;;;;;;4976218;28;20881;-86
2021/04/26 11:11:52;;;;;;;2.40;1.53;;;27.50;45.90;;;;;;4975908;28;20943;-86
2021/04/26 11:14:26;;;;;;;1.30;1.10;;;27.40;45.90;;;;;;4987229;28;20491;-89
2021/04/26 11:17:05;;;;;;;2.37;1.43;;;27.40;46.10;;;;;;4988524;28;20431;-89
2021/04/26 11:19:34;;;;;;;1.23;1.07;;;27.40;46.30;;;;;;4989833;28;20450;-89
2021/04/26 11:22:02;;;;;;;1.60;1.30;;;27.50;46.40;;;;;;4984939;28;20796;-90
2021/04/26 11:25:02;;;;;;;2.60;1.53;;;27.50;46.40;;;;;;4988837;28;20945;-89
2021/04/26 11:27:29;;;;;;;2.10;0.90;;;27.60;46.40;;;;;;4990673;28;20845;-89
2021/04/26 11:30:22;;;;;;;2.60;1.23;;;27.60;46.50;;;;;;4986916;28;20437;-89
2021/04/26 11:33:04;;;;;;;1.70;1.17;;;27.60;46.60;;;;;;4987511;28;20485;-88
2021/04/26 11:35:31;;;;;;;2.87;0.97;;;27.60;46.70;;;;;;4985101;28;20514;-89
2021/04/26 11:37:58;;;;;;;1.20;1.00;;;27.50;46.70;;;;;;4984002;28;21011;-89
2021/04/26 11:40:29;;;;;;;1.87;1.13;;;27.60;46.80;;;;;;4988658;28;20441;-88
2021/04/26 11:43:06;;;;;;;1.50;1.30;;;27.60;46.90;;;;;;4984737;28;20513;-89
2021/04/26 11:45:34;;;;;;;2.27;1.50;;;27.60;46.90;;;;;;4983513;28;20869;-89
2021/04/26 11:48:01;;;;;;;1.83;1.20;;;27.60;47.00;;;;;;4980207;28;20436;-89
2021/04/26 11:50:28;;;;;;;1.60;1.50;;;27.60;47.10;;;;;;4984962;28;20527;-88
2021/04/26 11:52:55;;;;;;;1.60;1.27;;;27.70;47.30;;;;;;4990819;28;20893;-90
2021/04/26 11:55:23;;;;;;;3.57;1.93;;;27.70;47.30;;;;;;4991478;28;20475;-90
2021/04/26 11:57:54;;;;;;;3.90;2.00;;;27.70;47.30;;;;;;4988669;28;20443;-89
2021/04/26 12:00:25;;;;;;;4.30;1.97;;;27.70;47.40;;;;;;4986987;28;20468;-90
2021/04/26 12:02:54;;;;;;;4.40;2.50;;;27.80;47.30;;;;;;4989562;28;20438;-90
2021/04/26 12:05:23;;;;;;;3.70;2.80;;;27.80;47.30;;;;;;4988517;28;20498;-89
2021/04/26 12:07:51;;;;;;;4.80;2.47;;;27.80;47.30;;;;;;4982688;28;20436;-89
2021/04/26 12:10:19;;;;;;;2.80;2.13;;;27.70;47.10;;;;;;4988046;28;20531;-90
2021/04/26 12:12:47;;;;;;;6.67;2.83;;;27.70;47.20;;;;;;4993195;28;20482;-90
2021/04/26 12:15:16;;;;;;;8.03;2.57;;;27.60;47.10;;;;;;4975603;28;20472;-90
2021/04/26 12:17:44;;;;;;;4.53;2.40;;;27.60;44.60;;;;;;4975685;28;20450;-91
2021/04/26 12:20:17;;;;;;;7.87;2.27;;;27.60;44.60;;;;;;4975518;28;20841;-89
2021/04/26 12:22:44;;;;;;;2.93;1.90;;;27.50;44.50;;;;;;4975329;28;20466;-87
2021/04/26 12:25:12;;;;;;;2.90;1.70;;;27.50;42.40;;;;;;4975134;28;20479;-89
2021/04/26 12:27:39;;;;;;;3.27;1.80;;;27.50;41.20;;;;;;4975197;28;20448;-87
2021/04/26 12:30:11;;;;;;;1.70;1.60;;;27.40;42.10;;;;;;4974737;28;20447;-87
2021/04/26 12:32:39;;;;;;;3.40;1.47;;;27.40;42.10;;;;;;4974713;28;20621;-87
2021/04/26 12:35:08;;;;;;;2.10;1.40;;;27.40;42.40;;;;;;4975217;28;20877;-87
2021/04/26 12:37:36;;;;;;;1.30;1.00;;;27.30;41.90;;;;;;4974898;28;20448;-87
2021/04/26 12:40:21;;;;;;;4.03;1.57;;;27.20;42.40;;;;;;4974921;28;20530;-85
2021/04/26 12:42:50;;;;;;;2.90;1.37;;;27.30;41.00;;;;;;4989048;28;20999;-87
2021/04/26 12:45:21;;;;;;;3.83;1.73;;;27.10;41.30;;;;;;4994018;28;20486;-87
2021/04/26 12:47:52;;;;;;;3.20;1.40;;;27.10;42.60;;;;;;4994360;28;20453;-87
2021/04/26 12:50:23;;;;;;;1.80;1.17;;;27.20;43.30;;;;;;4994338;28;20444;-89
2021/04/26 12:53:10;;;;;;;6.00;1.20;;;27.20;43.60;;;;;;4994108;28;20996;-88
2021/04/26 12:55:39;;;;;;;3.87;1.73;;;27.30;43.70;;;;;;4994181;28;20803;-87
2021/04/26 12:58:12;;;;;;;2.13;1.30;;;27.30;44.00;;;;;;4994136;28;20452;-87